Time;durP1;ratioP1;P1;durP2;ratioP2;P2;SDS_P1;SDS_P2;PMS_P1;PMS_P2;Temp;Humidity;BMP_temperature;BMP_pressure;BME280_temperature;BME280_humidity;BME280_pressure;Samples;Min_cycle;Max_cycle;Signal;HPM_P1;HPM_P2
2022/07/27 00:07:21;;;;;;;0.20;0.00;;;26.90;99.90;;;;;;25695876;23;20213;-73
2022/07/27 00:17:26;;;;;;;0.20;0.00;;;26.90;99.90;;;;;;25697021;23;20167;-73
2022/07/27 00:27:30;;;;;;;0.20;0.00;;;27.10;99.90;;;;;;25695592;23;20241;-72
2022/07/27 00:37:35;;;;;;;0.20;0.00;;;27.00;99.90;;;;;;25700602;23;20166;-72
2022/07/27 00:47:39;;;;;;;0.20;0.00;;;26.70;99.90;;;;;;25676359;23;20201;-72
2022/07/27 00:57:45;;;;;;;0.20;0.00;;;26.50;99.90;;;;;;25677168;23;20186;-72
2022/07/27 01:08:02;;;;;;;0.20;0.00;;;26.00;99.90;;;;;;25703278;23;20194;-72
2022/07/27 01:18:11;;;;;;;0.20;0.00;;;25.80;99.90;;;;;;25702862;23;20177;-73
2022/07/27 01:28:16;;;;;;;0.20;0.00;;;26.00;99.90;;;;;;25702463;23;20178;-73
2022/07/27 01:38:21;;;;;;;0.20;0.00;;;26.00;99.90;;;;;;25700436;23;20234;-73
2022/07/27 01:48:26;;;;;;;0.20;0.03;;;26.10;99.90;;;;;;25674976;23;20186;-74
2022/07/27 01:58:30;;;;;;;0.20;0.00;;;26.20;99.90;;;;;;25702104;23;20230;-74
2022/07/27 02:08:35;;;;;;;0.20;0.00;;;26.10;99.90;;;;;;25701222;23;20202;-73
2022/07/27 02:18:39;;;;;;;0.20;0.00;;;26.10;99.90;;;;;;25701076;23;20209;-73
2022/07/27 02:28:44;;;;;;;0.20;0.00;;;26.30;99.90;;;;;;25674647;23;20317;-72
2022/07/27 02:38:48;;;;;;;0.20;0.00;;;26.30;99.90;;;;;;25673602;23;20198;-72
2022/07/27 02:48:53;;;;;;;0.20;0.00;;;26.20;99.90;;;;;;25699462;23;20209;-73
2022/07/27 02:58:57;;;;;;;0.20;0.00;;;26.30;99.90;;;;;;25699253;23;20216;-74
2022/07/27 03:09:03;;;;;;;0.20;0.00;;;26.40;99.90;;;;;;25698346;23;20287;-72
2022/07/27 03:19:07;;;;;;;0.20;0.00;;;26.40;99.90;;;;;;25698604;23;20154;-73
2022/07/27 03:29:13;;;;;;;0.20;0.00;;;26.40;99.90;;;;;;25698574;23;20197;-73
2022/07/27 03:39:17;;;;;;;0.20;0.00;;;26.40;99.90;;;;;;25698231;23;20193;-73
2022/07/27 03:49:22;;;;;;;0.20;0.00;;;26.50;99.90;;;;;;25692871;23;20213;-73
2022/07/27 03:59:27;;;;;;;0.20;0.00;;;26.60;99.90;;;;;;25695989;23;20189;-72
2022/07/27 04:09:33;;;;;;;0.20;0.00;;;26.70;99.90;;;;;;25700355;23;20293;-74
2022/07/27 04:19:36;;;;;;;0.20;0.00;;;26.20;99.90;;;;;;25705451;23;20213;-75
2022/07/27 04:29:42;;;;;;;0.20;0.00;;;26.00;99.90;;;;;;25679382;23;20190;-72
2022/07/27 04:39:45;;;;;;;0.20;0.00;;;25.40;99.90;;;;;;25678303;23;20170;-73
2022/07/27 04:49:51;;;;;;;0.20;0.00;;;24.80;99.90;;;;;;25703700;23;20190;-72
2022/07/27 04:59:55;;;;;;;0.20;0.00;;;24.60;99.90;;;;;;25703251;23;20208;-73
2022/07/27 05:10:00;;;;;;;0.20;0.00;;;24.20;99.90;;;;;;25701911;23;20178;-72
2022/07/27 05:20:05;;;;;;;0.20;0.00;;;24.20;99.90;;;;;;25676553;23;20549;-72
2022/07/27 05:30:12;;;;;;;0.20;0.00;;;24.00;99.90;;;;;;25699878;23;20182;-73
2022/07/27 05:40:15;;;;;;;0.20;0.00;;;23.10;99.90;;;;;;25700518;23;20159;-77
2022/07/27 05:50:21;;;;;;;0.20;0.00;;;22.40;99.90;;;;;;25699811;23;20233;-73
2022/07/27 06:00:25;;;;;;;0.20;0.00;;;22.40;99.90;;;;;;25698873;23;20245;-73
2022/07/27 06:10:33;;;;;;;0.20;0.00;;;22.40;99.90;;;;;;25673038;23;20260;-73
2022/07/27 06:20:36;;;;;;;0.20;0.00;;;22.60;99.90;;;;;;25697917;23;20166;-76
2022/07/27 06:30:42;;;;;;;0.20;0.00;;;22.90;99.90;;;;;;25670573;23;20209;-74
2022/07/27 06:40:51;;;;;;;0.20;0.00;;;23.30;99.90;;;;;;25669011;23;20221;-75
2022/07/27 06:50:56;;;;;;;0.20;0.00;;;23.50;99.90;;;;;;25667849;23;20192;-72
2022/07/27 07:01:01;;;;;;;0.20;0.00;;;23.60;99.90;;;;;;25692962;23;20367;-73
2022/07/27 07:11:08;;;;;;;0.20;0.00;;;23.80;99.90;;;;;;25666349;23;20191;-73
2022/07/27 07:21:11;;;;;;;0.20;0.00;;;23.90;99.90;;;;;;25693452;23;20313;-74
2022/07/27 07:31:19;;;;;;;0.20;0.00;;;23.90;99.90;;;;;;25693737;23;20209;-73
2022/07/27 07:41:23;;;;;;;0.20;0.00;;;24.30;99.90;;;;;;25665973;23;20177;-72
2022/07/27 07:51:28;;;;;;;0.20;0.00;;;24.80;99.90;;;;;;25666297;23;20213;-72
2022/07/27 08:01:32;;;;;;;0.20;0.10;;;25.00;99.90;;;;;;25691391;23;20218;-72
2022/07/27 08:11:38;;;;;;;0.20;0.00;;;25.30;99.90;;;;;;25693488;23;20189;-70
2022/07/27 08:21:42;;;;;;;0.20;0.10;;;25.80;99.90;;;;;;25692683;23;20193;-70
2022/07/27 08:31:47;;;;;;;0.20;0.00;;;26.10;99.90;;;;;;25665418;23;20682;-69
2022/07/27 08:41:59;;;;;;;0.20;0.00;;;26.70;99.90;;;;;;25691086;23;20162;-68
2022/07/27 08:52:05;;;;;;;0.20;0.00;;;26.70;99.90;;;;;;25666376;23;20209;-69
2022/07/27 09:02:11;;;;;;;0.20;0.00;;;26.60;99.90;;;;;;25672122;23;20194;-70
2022/07/27 09:12:16;;;;;;;0.20;0.00;;;26.80;99.90;;;;;;25697386;23;20197;-69
2022/07/27 09:22:39;;;;;;;0.20;0.00;;;27.00;99.90;;;;;;25697409;23;20186;-69
2022/07/27 09:32:55;;;;;;;0.20;0.00;;;27.50;99.90;;;;;;25670846;23;20217;-70
2022/07/27 09:43:11;;;;;;;0.20;0.00;;;27.20;99.90;;;;;;25667467;23;20229;-70
2022/07/27 09:53:37;;;;;;;0.20;0.00;;;27.50;99.90;;;;;;25693721;23;20186;-71
2022/07/27 10:03:47;;;;;;;0.20;0.00;;;28.30;99.90;;;;;;25692132;23;20271;-70
2022/07/27 10:13:54;;;;;;;0.20;0.00;;;28.40;99.90;;;;;;25665717;23;20202;-69
2022/07/27 10:23:59;;;;;;;0.20;0.00;;;28.30;99.90;;;;;;25692517;23;20163;-70
2022/07/27 10:34:06;;;;;;;0.20;0.10;;;28.70;99.90;;;;;;25689389;23;20197;-70
2022/07/27 10:44:28;;;;;;;0.20;0.00;;;28.70;99.90;;;;;;25690073;23;20255;-69
2022/07/27 10:54:40;;;;;;;0.20;0.00;;;28.50;99.90;;;;;;25688952;23;20201;-71
2022/07/27 11:04:46;;;;;;;0.20;0.00;;;28.00;99.90;;;;;;25663071;23;20261;-69
2022/07/27 11:14:53;;;;;;;0.20;0.00;;;27.70;99.90;;;;;;25687285;23;20201;-69
2022/07/27 11:24:58;;;;;;;0.20;0.00;;;27.30;99.90;;;;;;25688420;23;20182;-70
2022/07/27 11:35:13;;;;;;;0.20;0.00;;;27.20;99.90;;;;;;25688688;23;20213;-70
2022/07/27 11:45:28;;;;;;;0.20;0.10;;;27.00;99.90;;;;;;25661705;23;20193;-71
2022/07/27 11:55:34;;;;;;;0.20;0.00;;;26.50;99.90;;;;;;25662537;23;20217;-71
2022/07/27 12:05:37;;;;;;;0.20;0.00;;;26.40;99.90;;;;;;25662400;23;20730;-72
2022/07/27 12:15:43;;;;;;;0.20;0.00;;;26.20;99.90;;;;;;25681438;23;20201;-71
2022/07/27 12:25:49;;;;;;;0.20;0.00;;;26.30;99.90;;;;;;25684223;23;20283;-71
2022/07/27 12:35:57;;;;;;;0.20;0.00;;;26.60;99.90;;;;;;25668562;23;20214;-71
2022/07/27 12:46:11;;;;;;;0.20;0.00;;;27.40;99.90;;;;;;25701357;23;20155;-71
2022/07/27 12:56:16;;;;;;;0.20;0.00;;;27.40;99.90;;;;;;25675135;23;20197;-68
2022/07/27 13:06:30;;;;;;;0.20;0.00;;;27.70;99.90;;;;;;25671088;23;20198;-70
2022/07/27 13:16:35;;;;;;;0.20;0.10;;;27.70;99.90;;;;;;25697162;23;20182;-69
2022/07/27 13:26:39;;;;;;;0.20;0.10;;;27.80;99.90;;;;;;25668657;23;20318;-71
2022/07/27 13:36:45;;;;;;;0.20;0.00;;;28.70;99.90;;;;;;25683429;23;20269;-70
2022/07/27 13:46:49;;;;;;;0.20;0.00;;;30.40;99.90;;;;;;25685597;23;20190;-70
2022/07/27 13:56:55;;;;;;;0.20;0.00;;;30.50;99.90;;;;;;25685481;23;20205;-71
2022/07/27 14:06:59;;;;;;;0.20;0.00;;;31.40;99.90;;;;;;25684578;23;20224;-68
2022/07/27 14:17:05;;;;;;;0.20;0.00;;;32.70;99.90;;;;;;25684746;23;20202;-69
2022/07/27 14:27:09;;;;;;;0.20;0.00;;;33.20;99.90;;;;;;25674957;23;20174;-68
2022/07/27 14:37:14;;;;;;;0.20;0.00;;;33.30;99.90;;;;;;25680793;23;20170;-69
2022/07/27 14:47:18;;;;;;;0.20;0.00;;;31.40;99.90;;;;;;25678752;23;20178;-70
2022/07/27 14:57:24;;;;;;;0.20;0.00;;;30.50;99.90;;;;;;25676432;23;20245;-71
2022/07/27 15:07:27;;;;;;;0.20;0.00;;;31.40;99.90;;;;;;25649018;23;20198;-71
2022/07/27 15:17:33;;;;;;;0.20;0.00;;;34.30;99.90;;;;;;25677290;23;20268;-71
2022/07/27 15:27:40;;;;;;;0.20;0.00;;;31.00;99.90;;;;;;25677039;23;20181;-70
2022/07/27 15:37:45;;;;;;;0.20;0.00;;;29.60;99.90;;;;;;25677168;23;20244;-69
2022/07/27 15:47:57;;;;;;;0.20;0.00;;;28.90;99.90;;;;;;25627702;23;20250;-71
2022/07/27 15:58:03;;;;;;;0.20;0.00;;;28.50;99.90;;;;;;25674202;23;20173;-71
2022/07/27 16:08:08;;;;;;;0.20;0.00;;;28.60;99.90;;;;;;25656807;23;20293;-71
2022/07/27 16:18:13;;;;;;;0.20;0.00;;;28.60;99.90;;;;;;25690141;23;20205;-69
2022/07/27 16:28:17;;;;;;;0.20;0.00;;;28.40;99.90;;;;;;25689176;23;20241;-69
2022/07/27 16:38:22;;;;;;;0.20;0.00;;;28.00;99.90;;;;;;25691949;23;20185;-71
2022/07/27 16:48:26;;;;;;;0.20;0.00;;;27.80;99.90;;;;;;25694172;23;20178;-70
2022/07/27 16:58:34;;;;;;;0.20;0.00;;;27.80;99.90;;;;;;25697222;23;20194;-69
2022/07/27 17:08:38;;;;;;;0.20;0.00;;;27.70;99.90;;;;;;25695893;23;20238;-69
2022/07/27 17:18:43;;;;;;;0.20;0.00;;;27.80;99.90;;;;;;25696473;23;20181;-69
2022/07/27 17:28:47;;;;;;;0.20;0.00;;;27.90;99.90;;;;;;25695193;23;20274;-70
2022/07/27 17:38:53;;;;;;;0.20;0.00;;;28.10;99.90;;;;;;25694866;23;20167;-70
2022/07/27 17:48:57;;;;;;;0.20;0.00;;;28.20;99.90;;;;;;25696045;23;20237;-69
2022/07/27 17:59:02;;;;;;;0.20;0.00;;;28.10;99.90;;;;;;25695227;23;20191;-70
2022/07/27 18:09:26;;;;;;;0.20;0.00;;;29.90;99.90;;;;;;25693008;23;20212;-70
2022/07/27 18:19:31;;;;;;;0.20;0.00;;;29.40;99.90;;;;;;25690601;23;20166;-71
2022/07/27 18:29:35;;;;;;;0.20;0.00;;;28.80;99.90;;;;;;25663683;23;20284;-69
2022/07/27 18:39:42;;;;;;;0.20;0.00;;;28.30;99.90;;;;;;25690245;23;20180;-69
2022/07/27 18:49:46;;;;;;;0.20;0.00;;;28.60;99.90;;;;;;25690089;23;20230;-69
2022/07/27 18:59:52;;;;;;;0.20;0.00;;;28.10;99.90;;;;;;25689459;23;20233;-71
2022/07/27 19:09:56;;;;;;;0.20;0.00;;;27.80;99.90;;;;;;25689519;23;20185;-71
2022/07/27 19:20:01;;;;;;;0.20;0.00;;;27.60;99.90;;;;;;25690065;23;20202;-70
2022/07/27 19:30:05;;;;;;;0.20;0.00;;;27.40;99.90;;;;;;25661277;23;20209;-69
2022/07/27 19:40:11;;;;;;;0.20;0.10;;;27.40;99.90;;;;;;25678485;23;20234;-69
2022/07/27 19:50:35;;;;;;;0.20;0.00;;;27.30;99.90;;;;;;25688557;23;20186;-70
2022/07/27 20:00:40;;;;;;;0.20;0.00;;;27.30;99.90;;;;;;25661918;23;20294;-71
2022/07/27 20:10:46;;;;;;;0.20;0.00;;;27.30;99.90;;;;;;25688202;23;20289;-68
2022/07/27 20:20:51;;;;;;;0.20;0.10;;;27.10;99.90;;;;;;25686908;23;20181;-71
2022/07/27 20:30:55;;;;;;;0.20;0.00;;;27.10;99.90;;;;;;25689088;23;20278;-70
2022/07/27 20:41:00;;;;;;;0.20;0.10;;;27.00;99.90;;;;;;25687833;23;20173;-69
2022/07/27 20:51:04;;;;;;;0.20;0.00;;;27.00;99.90;;;;;;25691419;23;20224;-70
2022/07/27 21:01:09;;;;;;;0.20;0.00;;;27.10;99.90;;;;;;25696107;23;20224;-70
2022/07/27 21:11:13;;;;;;;0.20;0.00;;;27.10;99.90;;;;;;25669476;23;20254;-70
2022/07/27 21:21:19;;;;;;;0.20;0.00;;;27.00;99.90;;;;;;25669176;23;20230;-69
2022/07/27 21:31:29;;;;;;;0.20;0.00;;;26.90;99.90;;;;;;25668677;23;20202;-69
2022/07/27 21:41:35;;;;;;;0.20;0.00;;;26.80;99.90;;;;;;25694939;23;20234;-70
2022/07/27 21:51:39;;;;;;;0.20;0.00;;;26.70;99.90;;;;;;25694195;23;20265;-70
2022/07/27 22:01:44;;;;;;;0.20;0.00;;;26.50;99.90;;;;;;25691833;23;20205;-69
2022/07/27 22:11:48;;;;;;;0.20;0.10;;;26.70;99.90;;;;;;25694476;23;20178;-71
2022/07/27 22:21:53;;;;;;;0.20;0.00;;;26.60;99.90;;;;;;25668829;23;20193;-71
2022/07/27 22:31:57;;;;;;;0.20;0.00;;;26.50;99.90;;;;;;25670095;23;20182;-70
2022/07/27 22:42:03;;;;;;;0.20;0.05;;;26.10;99.90;;;;;;25671043;23;20170;-70
2022/07/27 22:52:07;;;;;;;0.20;0.00;;;26.00;99.90;;;;;;25695409;23;20241;-71
2022/07/27 23:02:12;;;;;;;0.20;0.00;;;26.10;99.90;;;;;;25696999;23;20193;-71
2022/07/27 23:12:16;;;;;;;0.20;0.00;;;26.10;99.90;;;;;;25670448;23;20213;-72
2022/07/27 23:22:21;;;;;;;0.20;0.00;;;25.90;99.90;;;;;;25696655;23;20217;-71
2022/07/27 23:32:26;;;;;;;0.20;0.00;;;25.80;99.90;;;;;;25670567;23;20190;-70
2022/07/27 23:42:33;;;;;;;0.20;0.00;;;25.70;99.90;;;;;;25695505;23;20198;-70
2022/07/27 23:52:38;;;;;;;0.20;0.00;;;25.60;99.90;;;;;;25694533;23;20210;-70
